sensor_id;sensor_type;location;lat;lon;timestamp;P1;durP1;ratioP1;P2;durP2;ratioP2
51042;SDS011;37078;45.806;9.084;2022-09-06T00:00:06;12.43;;;5.95;;
51042;SDS011;37078;45.806;9.084;2022-09-06T00:02:36;13.07;;;5.45;;
51042;SDS011;37078;45.806;9.084;2022-09-06T00:05:02;11.52;;;5.45;;
51042;SDS011;37078;45.806;9.084;2022-09-06T00:07:29;11.63;;;5.63;;
51042;SDS011;37078;45.806;9.084;2022-09-06T00:09:54;11.95;;;5.70;;
51042;SDS011;37078;45.806;9.084;2022-09-06T00:12:21;11.85;;;5.47;;
51042;SDS011;37078;45.806;9.084;2022-09-06T00:14:47;12.65;;;5.60;;
51042;SDS011;37078;45.806;9.084;2022-09-06T00:17:12;11.77;;;5.68;;
51042;SDS011;37078;45.806;9.084;2022-09-06T00:19:37;13.57;;;6.15;;
51042;SDS011;37078;45.806;9.084;2022-09-06T00:22:03;13.75;;;5.68;;
51042;SDS011;37078;45.806;9.084;2022-09-06T00:24:28;11.75;;;5.70;;
51042;SDS011;37078;45.806;9.084;2022-09-06T00:26:53;12.13;;;5.82;;
51042;SDS011;37078;45.806;9.084;2022-09-06T00:29:19;13.20;;;5.65;;
51042;SDS011;37078;45.806;9.084;2022-09-06T00:31:44;14.30;;;6.13;;
51042;SDS011;37078;45.806;9.084;2022-09-06T00:34:09;12.13;;;5.55;;
51042;SDS011;37078;45.806;9.084;2022-09-06T00:36:35;14.32;;;5.82;;
51042;SDS011;37078;45.806;9.084;2022-09-06T00:39:00;15.60;;;6.15;;
51042;SDS011;37078;45.806;9.084;2022-09-06T00:41:26;12.00;;;5.80;;
51042;SDS011;37078;45.806;9.084;2022-09-06T00:43:51;14.15;;;5.63;;
51042;SDS011;37078;45.806;9.084;2022-09-06T00:46:19;13.55;;;5.95;;
51042;SDS011;37078;45.806;9.084;2022-09-06T00:48:49;12.00;;;5.97;;
51042;SDS011;37078;45.806;9.084;2022-09-06T00:51:19;13.13;;;5.57;;
51042;SDS011;37078;45.806;9.084;2022-09-06T00:53:46;12.20;;;5.55;;
51042;SDS011;37078;45.806;9.084;2022-09-06T00:56:12;12.95;;;5.60;;
51042;SDS011;37078;45.806;9.084;2022-09-06T00:58:37;11.38;;;5.65;;
51042;SDS011;37078;45.806;9.084;2022-09-06T01:01:04;14.20;;;5.68;;
51042;SDS011;37078;45.806;9.084;2022-09-06T01:03:30;15.20;;;5.95;;
51042;SDS011;37078;45.806;9.084;2022-09-06T01:08:53;13.02;;;6.13;;
51042;SDS011;37078;45.806;9.084;2022-09-06T01:28:29;11.93;;;5.55;;
51042;SDS011;37078;45.806;9.084;2022-09-06T01:36:37;11.82;;;5.10;;
51042;SDS011;37078;45.806;9.084;2022-09-06T01:39:03;11.60;;;5.43;;
51042;SDS011;37078;45.806;9.084;2022-09-06T01:41:28;12.73;;;5.40;;
51042;SDS011;37078;45.806;9.084;2022-09-06T01:43:54;11.65;;;5.45;;
51042;SDS011;37078;45.806;9.084;2022-09-06T01:54:16;11.52;;;5.25;;
51042;SDS011;37078;45.806;9.084;2022-09-06T02:02:02;12.48;;;5.40;;
51042;SDS011;37078;45.806;9.084;2022-09-06T02:04:29;11.82;;;5.20;;
51042;SDS011;37078;45.806;9.084;2022-09-06T02:07:04;11.95;;;5.38;;
51042;SDS011;37078;45.806;9.084;2022-09-06T02:09:37;11.60;;;5.45;;
51042;SDS011;37078;45.806;9.084;2022-09-06T02:12:06;14.77;;;6.38;;
51042;SDS011;37078;45.806;9.084;2022-09-06T02:14:40;12.02;;;5.28;;
51042;SDS011;37078;45.806;9.084;2022-09-06T02:17:26;12.80;;;5.57;;
51042;SDS011;37078;45.806;9.084;2022-09-06T02:19:58;11.85;;;5.38;;
51042;SDS011;37078;45.806;9.084;2022-09-06T02:22:28;14.23;;;5.63;;
51042;SDS011;37078;45.806;9.084;2022-09-06T02:24:57;13.68;;;5.20;;
51042;SDS011;37078;45.806;9.084;2022-09-06T02:27:25;11.98;;;5.38;;
51042;SDS011;37078;45.806;9.084;2022-09-06T02:29:51;11.40;;;5.43;;
51042;SDS011;37078;45.806;9.084;2022-09-06T02:32:18;12.70;;;5.47;;
51042;SDS011;37078;45.806;9.084;2022-09-06T02:34:45;11.88;;;5.10;;
51042;SDS011;37078;45.806;9.084;2022-09-06T02:37:12;12.70;;;5.22;;
51042;SDS011;37078;45.806;9.084;2022-09-06T02:39:40;12.88;;;5.43;;
51042;SDS011;37078;45.806;9.084;2022-09-06T02:42:07;15.20;;;6.47;;
51042;SDS011;37078;45.806;9.084;2022-09-06T02:44:34;11.75;;;5.28;;
51042;SDS011;37078;45.806;9.084;2022-09-06T02:47:00;12.38;;;4.95;;
51042;SDS011;37078;45.806;9.084;2022-09-06T02:49:27;12.77;;;5.40;;
51042;SDS011;37078;45.806;9.084;2022-09-06T02:51:53;14.18;;;5.40;;
51042;SDS011;37078;45.806;9.084;2022-09-06T02:54:19;10.77;;;5.00;;
51042;SDS011;37078;45.806;9.084;2022-09-06T02:56:44;11.70;;;5.20;;
51042;SDS011;37078;45.806;9.084;2022-09-06T02:59:10;12.77;;;4.95;;
51042;SDS011;37078;45.806;9.084;2022-09-06T03:01:35;11.38;;;5.38;;
51042;SDS011;37078;45.806;9.084;2022-09-06T03:04:01;13.38;;;5.88;;
51042;SDS011;37078;45.806;9.084;2022-09-06T03:06:26;12.30;;;5.20;;
51042;SDS011;37078;45.806;9.084;2022-09-06T03:08:52;12.20;;;4.80;;
51042;SDS011;37078;45.806;9.084;2022-09-06T03:11:17;11.77;;;5.20;;
51042;SDS011;37078;45.806;9.084;2022-09-06T03:13:42;11.90;;;5.07;;
51042;SDS011;37078;45.806;9.084;2022-09-06T03:16:08;13.30;;;5.50;;
51042;SDS011;37078;45.806;9.084;2022-09-06T03:18:33;13.60;;;5.30;;
51042;SDS011;37078;45.806;9.084;2022-09-06T03:20:59;11.55;;;5.45;;
51042;SDS011;37078;45.806;9.084;2022-09-06T03:23:25;12.75;;;5.30;;
51042;SDS011;37078;45.806;9.084;2022-09-06T03:25:52;12.52;;;5.05;;
51042;SDS011;37078;45.806;9.084;2022-09-06T03:28:18;12.73;;;5.43;;
51042;SDS011;37078;45.806;9.084;2022-09-06T03:30:44;12.43;;;5.65;;
51042;SDS011;37078;45.806;9.084;2022-09-06T03:33:11;11.85;;;5.18;;
51042;SDS011;37078;45.806;9.084;2022-09-06T03:35:36;11.38;;;5.35;;
51042;SDS011;37078;45.806;9.084;2022-09-06T03:38:02;11.77;;;4.70;;
51042;SDS011;37078;45.806;9.084;2022-09-06T03:40:27;12.00;;;5.05;;
51042;SDS011;37078;45.806;9.084;2022-09-06T03:42:53;13.05;;;5.13;;
51042;SDS011;37078;45.806;9.084;2022-09-06T03:45:18;10.90;;;5.00;;
51042;SDS011;37078;45.806;9.084;2022-09-06T03:47:44;13.13;;;5.65;;
51042;SDS011;37078;45.806;9.084;2022-09-06T03:50:09;11.23;;;5.22;;
51042;SDS011;37078;45.806;9.084;2022-09-06T03:52:35;11.80;;;5.35;;
51042;SDS011;37078;45.806;9.084;2022-09-06T03:55:01;11.50;;;5.25;;
51042;SDS011;37078;45.806;9.084;2022-09-06T03:57:27;12.75;;;5.57;;
51042;SDS011;37078;45.806;9.084;2022-09-06T03:59:53;13.30;;;5.15;;
51042;SDS011;37078;45.806;9.084;2022-09-06T04:02:18;11.63;;;5.30;;
51042;SDS011;37078;45.806;9.084;2022-09-06T04:04:44;11.60;;;5.32;;
51042;SDS011;37078;45.806;9.084;2022-09-06T04:07:09;11.85;;;5.13;;
51042;SDS011;37078;45.806;9.084;2022-09-06T04:09:34;12.05;;;4.97;;
51042;SDS011;37078;45.806;9.084;2022-09-06T04:12:00;11.82;;;5.35;;
51042;SDS011;37078;45.806;9.084;2022-09-06T04:14:25;11.77;;;5.13;;
51042;SDS011;37078;45.806;9.084;2022-09-06T04:16:50;11.07;;;5.47;;
51042;SDS011;37078;45.806;9.084;2022-09-06T04:19:16;12.43;;;5.25;;
51042;SDS011;37078;45.806;9.084;2022-09-06T04:21:41;11.20;;;5.10;;
51042;SDS011;37078;45.806;9.084;2022-09-06T04:24:07;11.80;;;5.13;;
51042;SDS011;37078;45.806;9.084;2022-09-06T04:26:33;17.73;;;5.18;;
51042;SDS011;37078;45.806;9.084;2022-09-06T04:28:58;13.27;;;5.03;;
51042;SDS011;37078;45.806;9.084;2022-09-06T04:31:23;11.27;;;4.88;;
51042;SDS011;37078;45.806;9.084;2022-09-06T04:33:49;12.23;;;5.25;;
51042;SDS011;37078;45.806;9.084;2022-09-06T04:36:14;12.00;;;5.25;;
51042;SDS011;37078;45.806;9.084;2022-09-06T04:38:41;10.55;;;4.88;;
51042;SDS011;37078;45.806;9.084;2022-09-06T04:41:09;15.85;;;5.65;;
51042;SDS011;37078;45.806;9.084;2022-09-06T04:43:36;14.18;;;5.65;;
51042;SDS011;37078;45.806;9.084;2022-09-06T04:46:04;15.18;;;6.00;;
51042;SDS011;37078;45.806;9.084;2022-09-06T04:48:33;13.27;;;5.70;;
51042;SDS011;37078;45.806;9.084;2022-09-06T04:50:58;13.20;;;5.15;;
51042;SDS011;37078;45.806;9.084;2022-09-06T04:53:23;12.07;;;5.22;;
51042;SDS011;37078;45.806;9.084;2022-09-06T04:55:49;12.20;;;5.63;;
51042;SDS011;37078;45.806;9.084;2022-09-06T04:58:14;13.70;;;5.50;;
51042;SDS011;37078;45.806;9.084;2022-09-06T05:00:40;13.85;;;5.82;;
51042;SDS011;37078;45.806;9.084;2022-09-06T05:03:08;14.95;;;5.80;;
51042;SDS011;37078;45.806;9.084;2022-09-06T05:05:33;12.30;;;5.78;;
51042;SDS011;37078;45.806;9.084;2022-09-06T05:07:59;14.90;;;5.68;;
51042;SDS011;37078;45.806;9.084;2022-09-06T05:10:24;12.60;;;5.60;;
51042;SDS011;37078;45.806;9.084;2022-09-06T05:12:50;13.45;;;5.90;;
51042;SDS011;37078;45.806;9.084;2022-09-06T05:15:17;12.40;;;5.43;;
51042;SDS011;37078;45.806;9.084;2022-09-06T05:17:43;13.77;;;6.00;;
51042;SDS011;37078;45.806;9.084;2022-09-06T05:20:08;18.75;;;6.00;;
51042;SDS011;37078;45.806;9.084;2022-09-06T05:22:35;12.43;;;5.75;;
51042;SDS011;37078;45.806;9.084;2022-09-06T05:25:01;12.88;;;5.38;;
51042;SDS011;37078;45.806;9.084;2022-09-06T05:27:26;12.52;;;5.18;;
51042;SDS011;37078;45.806;9.084;2022-09-06T05:29:52;12.68;;;5.45;;
51042;SDS011;37078;45.806;9.084;2022-09-06T05:32:17;13.27;;;5.05;;
51042;SDS011;37078;45.806;9.084;2022-09-06T05:34:42;12.10;;;5.43;;
51042;SDS011;37078;45.806;9.084;2022-09-06T05:37:08;13.43;;;5.50;;
51042;SDS011;37078;45.806;9.084;2022-09-06T05:39:33;12.20;;;5.68;;
51042;SDS011;37078;45.806;9.084;2022-09-06T05:41:58;14.30;;;6.03;;
51042;SDS011;37078;45.806;9.084;2022-09-06T05:44:24;13.13;;;5.50;;
51042;SDS011;37078;45.806;9.084;2022-09-06T05:46:50;17.00;;;5.30;;
51042;SDS011;37078;45.806;9.084;2022-09-06T05:49:15;15.10;;;5.53;;
51042;SDS011;37078;45.806;9.084;2022-09-06T05:51:41;14.43;;;6.05;;
51042;SDS011;37078;45.806;9.084;2022-09-06T05:54:06;13.27;;;5.75;;
51042;SDS011;37078;45.806;9.084;2022-09-06T05:56:35;12.33;;;6.03;;
51042;SDS011;37078;45.806;9.084;2022-09-06T05:59:00;11.93;;;5.50;;
51042;SDS011;37078;45.806;9.084;2022-09-06T06:01:28;14.55;;;6.13;;
51042;SDS011;37078;45.806;9.084;2022-09-06T06:03:55;11.95;;;5.45;;
51042;SDS011;37078;45.806;9.084;2022-09-06T06:06:23;15.02;;;5.82;;
51042;SDS011;37078;45.806;9.084;2022-09-06T06:08:49;13.38;;;5.72;;
51042;SDS011;37078;45.806;9.084;2022-09-06T06:11:15;13.70;;;5.75;;
51042;SDS011;37078;45.806;9.084;2022-09-06T06:13:41;13.27;;;5.53;;
51042;SDS011;37078;45.806;9.084;2022-09-06T06:16:08;14.40;;;5.60;;
51042;SDS011;37078;45.806;9.084;2022-09-06T06:18:35;15.40;;;5.47;;
51042;SDS011;37078;45.806;9.084;2022-09-06T06:21:13;18.85;;;5.80;;
51042;SDS011;37078;45.806;9.084;2022-09-06T06:23:44;12.85;;;5.78;;
51042;SDS011;37078;45.806;9.084;2022-09-06T06:26:13;14.90;;;5.40;;
51042;SDS011;37078;45.806;9.084;2022-09-06T06:28:38;13.43;;;5.18;;
51042;SDS011;37078;45.806;9.084;2022-09-06T06:31:05;12.40;;;5.13;;
51042;SDS011;37078;45.806;9.084;2022-09-06T06:33:31;14.35;;;5.80;;
51042;SDS011;37078;45.806;9.084;2022-09-06T06:38:32;14.23;;;6.25;;
51042;SDS011;37078;45.806;9.084;2022-09-06T06:40:59;12.63;;;5.40;;
51042;SDS011;37078;45.806;9.084;2022-09-06T06:43:26;17.52;;;6.38;;
51042;SDS011;37078;45.806;9.084;2022-09-06T06:45:52;13.30;;;5.15;;
51042;SDS011;37078;45.806;9.084;2022-09-06T06:48:18;12.95;;;5.60;;
51042;SDS011;37078;45.806;9.084;2022-09-06T06:50:44;14.15;;;5.07;;
51042;SDS011;37078;45.806;9.084;2022-09-06T06:53:09;19.80;;;5.60;;
51042;SDS011;37078;45.806;9.084;2022-09-06T06:55:35;30.55;;;6.38;;
51042;SDS011;37078;45.806;9.084;2022-09-06T06:58:00;13.77;;;5.45;;
51042;SDS011;37078;45.806;9.084;2022-09-06T07:00:26;17.58;;;5.47;;
51042;SDS011;37078;45.806;9.084;2022-09-06T07:02:51;14.70;;;5.60;;
51042;SDS011;37078;45.806;9.084;2022-09-06T07:05:17;19.35;;;4.80;;
51042;SDS011;37078;45.806;9.084;2022-09-06T07:07:43;12.27;;;5.10;;
51042;SDS011;37078;45.806;9.084;2022-09-06T07:10:09;14.40;;;5.20;;
51042;SDS011;37078;45.806;9.084;2022-09-06T07:12:35;13.60;;;5.40;;
51042;SDS011;37078;45.806;9.084;2022-09-06T07:15:00;14.05;;;5.15;;
51042;SDS011;37078;45.806;9.084;2022-09-06T07:17:25;12.15;;;5.03;;
51042;SDS011;37078;45.806;9.084;2022-09-06T07:19:51;15.70;;;5.60;;
51042;SDS011;37078;45.806;9.084;2022-09-06T07:22:17;11.70;;;4.60;;
51042;SDS011;37078;45.806;9.084;2022-09-06T07:24:42;14.25;;;5.40;;
51042;SDS011;37078;45.806;9.084;2022-09-06T07:27:08;13.65;;;5.40;;
51042;SDS011;37078;45.806;9.084;2022-09-06T07:29:33;16.25;;;5.13;;
51042;SDS011;37078;45.806;9.084;2022-09-06T07:31:58;12.05;;;5.22;;
51042;SDS011;37078;45.806;9.084;2022-09-06T07:34:24;16.55;;;5.88;;
51042;SDS011;37078;45.806;9.084;2022-09-06T07:36:53;17.65;;;5.38;;
51042;SDS011;37078;45.806;9.084;2022-09-06T07:39:19;13.73;;;5.07;;
51042;SDS011;37078;45.806;9.084;2022-09-06T07:41:45;11.85;;;5.13;;
51042;SDS011;37078;45.806;9.084;2022-09-06T07:44:11;16.92;;;5.20;;
51042;SDS011;37078;45.806;9.084;2022-09-06T07:46:36;12.98;;;5.20;;
51042;SDS011;37078;45.806;9.084;2022-09-06T07:49:04;14.65;;;5.90;;
51042;SDS011;37078;45.806;9.084;2022-09-06T07:51:30;15.80;;;5.88;;
51042;SDS011;37078;45.806;9.084;2022-09-06T07:53:56;13.85;;;5.05;;
51042;SDS011;37078;45.806;9.084;2022-09-06T07:56:22;15.18;;;4.78;;
51042;SDS011;37078;45.806;9.084;2022-09-06T07:58:48;12.65;;;5.38;;
51042;SDS011;37078;45.806;9.084;2022-09-06T08:01:25;13.10;;;4.95;;
51042;SDS011;37078;45.806;9.084;2022-09-06T08:04:06;14.98;;;4.88;;
51042;SDS011;37078;45.806;9.084;2022-09-06T08:06:34;12.15;;;5.10;;
51042;SDS011;37078;45.806;9.084;2022-09-06T08:09:02;12.95;;;5.10;;
51042;SDS011;37078;45.806;9.084;2022-09-06T08:11:31;14.52;;;5.35;;
51042;SDS011;37078;45.806;9.084;2022-09-06T08:13:57;13.40;;;5.60;;
51042;SDS011;37078;45.806;9.084;2022-09-06T08:16:24;18.83;;;5.35;;
51042;SDS011;37078;45.806;9.084;2022-09-06T08:18:52;12.90;;;5.25;;
51042;SDS011;37078;45.806;9.084;2022-09-06T08:21:19;14.20;;;5.03;;
51042;SDS011;37078;45.806;9.084;2022-09-06T08:26:15;12.68;;;4.93;;
51042;SDS011;37078;45.806;9.084;2022-09-06T08:28:42;23.40;;;5.65;;
51042;SDS011;37078;45.806;9.084;2022-09-06T08:31:08;11.48;;;5.22;;
51042;SDS011;37078;45.806;9.084;2022-09-06T08:33:38;12.93;;;4.90;;
51042;SDS011;37078;45.806;9.084;2022-09-06T08:36:04;14.77;;;5.32;;
51042;SDS011;37078;45.806;9.084;2022-09-06T08:38:30;14.68;;;5.63;;
51042;SDS011;37078;45.806;9.084;2022-09-06T08:43:48;14.23;;;5.18;;
51042;SDS011;37078;45.806;9.084;2022-09-06T08:46:22;13.32;;;5.13;;
51042;SDS011;37078;45.806;9.084;2022-09-06T08:49:01;14.60;;;4.97;;
51042;SDS011;37078;45.806;9.084;2022-09-06T08:57:21;39.35;;;13.80;;
51042;SDS011;37078;45.806;9.084;2022-09-06T09:00:00;29.23;;;11.03;;
51042;SDS011;37078;45.806;9.084;2022-09-06T09:02:44;24.40;;;9.90;;
51042;SDS011;37078;45.806;9.084;2022-09-06T09:10:41;22.10;;;6.95;;
51042;SDS011;37078;45.806;9.084;2022-09-06T09:13:15;14.05;;;6.30;;
51042;SDS011;37078;45.806;9.084;2022-09-06T09:15:46;17.48;;;6.70;;
51042;SDS011;37078;45.806;9.084;2022-09-06T09:18:11;15.98;;;5.97;;
51042;SDS011;37078;45.806;9.084;2022-09-06T09:20:38;15.13;;;5.82;;
51042;SDS011;37078;45.806;9.084;2022-09-06T09:23:03;14.93;;;5.78;;
51042;SDS011;37078;45.806;9.084;2022-09-06T09:25:28;14.18;;;5.88;;
51042;SDS011;37078;45.806;9.084;2022-09-06T09:27:56;13.25;;;5.78;;
51042;SDS011;37078;45.806;9.084;2022-09-06T09:30:26;16.40;;;7.18;;
51042;SDS011;37078;45.806;9.084;2022-09-06T09:36:05;17.85;;;6.50;;
51042;SDS011;37078;45.806;9.084;2022-09-06T09:38:39;14.35;;;5.93;;
51042;SDS011;37078;45.806;9.084;2022-09-06T09:41:06;14.50;;;6.32;;
51042;SDS011;37078;45.806;9.084;2022-09-06T09:43:39;20.88;;;7.13;;
51042;SDS011;37078;45.806;9.084;2022-09-06T09:51:27;15.73;;;6.88;;
51042;SDS011;37078;45.806;9.084;2022-09-06T09:53:55;17.13;;;7.50;;
51042;SDS011;37078;45.806;9.084;2022-09-06T10:01:57;13.18;;;5.57;;
51042;SDS011;37078;45.806;9.084;2022-09-06T10:07:20;11.60;;;5.53;;
51042;SDS011;37078;45.806;9.084;2022-09-06T10:09:47;11.30;;;5.15;;
51042;SDS011;37078;45.806;9.084;2022-09-06T10:12:28;13.60;;;5.68;;
51042;SDS011;37078;45.806;9.084;2022-09-06T10:14:58;12.20;;;5.30;;
51042;SDS011;37078;45.806;9.084;2022-09-06T10:17:34;12.90;;;5.72;;
51042;SDS011;37078;45.806;9.084;2022-09-06T10:20:15;14.45;;;5.47;;
51042;SDS011;37078;45.806;9.084;2022-09-06T10:25:36;13.20;;;5.40;;
51042;SDS011;37078;45.806;9.084;2022-09-06T10:33:30;11.93;;;4.70;;
51042;SDS011;37078;45.806;9.084;2022-09-06T10:36:28;11.60;;;5.07;;
51042;SDS011;37078;45.806;9.084;2022-09-06T10:39:48;11.98;;;4.90;;
51042;SDS011;37078;45.806;9.084;2022-09-06T10:42:23;12.50;;;5.28;;
51042;SDS011;37078;45.806;9.084;2022-09-06T10:47:30;11.27;;;4.60;;
51042;SDS011;37078;45.806;9.084;2022-09-06T10:49:59;13.65;;;5.25;;
51042;SDS011;37078;45.806;9.084;2022-09-06T10:52:29;11.43;;;5.18;;
51042;SDS011;37078;45.806;9.084;2022-09-06T10:55:04;11.60;;;5.25;;
51042;SDS011;37078;45.806;9.084;2022-09-06T10:57:35;11.20;;;4.78;;
51042;SDS011;37078;45.806;9.084;2022-09-06T11:00:08;12.75;;;5.30;;
51042;SDS011;37078;45.806;9.084;2022-09-06T11:02:53;13.57;;;5.20;;
51042;SDS011;37078;45.806;9.084;2022-09-06T11:05:29;11.75;;;5.07;;
51042;SDS011;37078;45.806;9.084;2022-09-06T11:07:59;11.43;;;5.20;;
51042;SDS011;37078;45.806;9.084;2022-09-06T11:10:32;11.95;;;5.22;;
51042;SDS011;37078;45.806;9.084;2022-09-06T11:15:32;11.52;;;5.30;;
51042;SDS011;37078;45.806;9.084;2022-09-06T11:20:40;13.98;;;5.38;;
51042;SDS011;37078;45.806;9.084;2022-09-06T11:23:17;11.20;;;5.15;;
51042;SDS011;37078;45.806;9.084;2022-09-06T11:31:01;12.68;;;5.45;;
51042;SDS011;37078;45.806;9.084;2022-09-06T11:33:29;13.73;;;5.35;;
51042;SDS011;37078;45.806;9.084;2022-09-06T11:36:16;11.63;;;5.60;;
51042;SDS011;37078;45.806;9.084;2022-09-06T11:38:54;11.75;;;5.45;;
51042;SDS011;37078;45.806;9.084;2022-09-06T11:41:22;12.30;;;5.65;;
51042;SDS011;37078;45.806;9.084;2022-09-06T11:43:54;12.25;;;5.68;;
51042;SDS011;37078;45.806;9.084;2022-09-06T11:51:57;11.20;;;5.30;;
51042;SDS011;37078;45.806;9.084;2022-09-06T11:54:24;12.68;;;5.22;;
51042;SDS011;37078;45.806;9.084;2022-09-06T11:57:14;13.35;;;5.45;;
51042;SDS011;37078;45.806;9.084;2022-09-06T12:02:30;12.18;;;5.40;;
51042;SDS011;37078;45.806;9.084;2022-09-06T12:07:31;12.30;;;5.33;;
51042;SDS011;37078;45.806;9.084;2022-09-06T12:10:40;12.45;;;5.22;;
51042;SDS011;37078;45.806;9.084;2022-09-06T12:15:28;11.85;;;5.55;;
51042;SDS011;37078;45.806;9.084;2022-09-06T12:17:56;12.18;;;5.30;;
51042;SDS011;37078;45.806;9.084;2022-09-06T12:25:58;12.55;;;5.15;;
51042;SDS011;37078;45.806;9.084;2022-09-06T12:28:32;13.15;;;5.50;;
51042;SDS011;37078;45.806;9.084;2022-09-06T12:31:24;12.93;;;5.10;;
51042;SDS011;37078;45.806;9.084;2022-09-06T12:33:53;13.35;;;5.63;;
51042;SDS011;37078;45.806;9.084;2022-09-06T12:36:23;12.77;;;5.45;;
51042;SDS011;37078;45.806;9.084;2022-09-06T12:38:58;12.70;;;5.30;;
51042;SDS011;37078;45.806;9.084;2022-09-06T12:41:29;12.82;;;5.25;;
51042;SDS011;37078;45.806;9.084;2022-09-06T12:43:59;11.82;;;5.25;;
51042;SDS011;37078;45.806;9.084;2022-09-06T12:46:27;11.57;;;5.53;;
51042;SDS011;37078;45.806;9.084;2022-09-06T12:48:58;12.57;;;5.50;;
51042;SDS011;37078;45.806;9.084;2022-09-06T12:51:35;12.75;;;5.85;;
51042;SDS011;37078;45.806;9.084;2022-09-06T12:54:16;11.82;;;5.32;;
51042;SDS011;37078;45.806;9.084;2022-09-06T12:56:44;11.70;;;5.30;;
51042;SDS011;37078;45.806;9.084;2022-09-06T12:59:11;11.30;;;5.28;;
51042;SDS011;37078;45.806;9.084;2022-09-06T13:01:38;13.68;;;5.50;;
51042;SDS011;37078;45.806;9.084;2022-09-06T13:04:11;12.63;;;5.15;;
51042;SDS011;37078;45.806;9.084;2022-09-06T13:06:45;11.95;;;4.97;;
51042;SDS011;37078;45.806;9.084;2022-09-06T13:09:13;14.23;;;5.55;;
51042;SDS011;37078;45.806;9.084;2022-09-06T13:11:43;14.55;;;5.40;;
51042;SDS011;37078;45.806;9.084;2022-09-06T13:14:22;11.63;;;5.32;;
51042;SDS011;37078;45.806;9.084;2022-09-06T13:16:51;11.57;;;5.20;;
51042;SDS011;37078;45.806;9.084;2022-09-06T13:19:31;11.75;;;5.25;;
51042;SDS011;37078;45.806;9.084;2022-09-06T13:22:03;10.93;;;4.93;;
51042;SDS011;37078;45.806;9.084;2022-09-06T13:26:56;11.57;;;4.50;;
51042;SDS011;37078;45.806;9.084;2022-09-06T13:29:23;11.80;;;5.35;;
51042;SDS011;37078;45.806;9.084;2022-09-06T13:31:53;12.65;;;5.05;;
51042;SDS011;37078;45.806;9.084;2022-09-06T13:36:50;11.45;;;4.78;;
51042;SDS011;37078;45.806;9.084;2022-09-06T13:39:27;12.43;;;5.03;;
51042;SDS011;37078;45.806;9.084;2022-09-06T13:42:02;11.52;;;5.13;;
51042;SDS011;37078;45.806;9.084;2022-09-06T13:44:32;11.23;;;5.25;;
51042;SDS011;37078;45.806;9.084;2022-09-06T13:46:59;12.87;;;5.23;;
51042;SDS011;37078;45.806;9.084;2022-09-06T13:49:25;11.80;;;4.82;;
51042;SDS011;37078;45.806;9.084;2022-09-06T13:51:52;12.18;;;4.90;;
51042;SDS011;37078;45.806;9.084;2022-09-06T13:54:20;11.40;;;4.53;;
51042;SDS011;37078;45.806;9.084;2022-09-06T13:56:46;11.80;;;4.93;;
51042;SDS011;37078;45.806;9.084;2022-09-06T13:59:13;11.52;;;5.10;;
51042;SDS011;37078;45.806;9.084;2022-09-06T14:01:40;12.43;;;4.80;;
51042;SDS011;37078;45.806;9.084;2022-09-06T14:04:08;11.27;;;5.03;;
51042;SDS011;37078;45.806;9.084;2022-09-06T14:06:36;11.38;;;5.07;;
51042;SDS011;37078;45.806;9.084;2022-09-06T14:09:02;11.38;;;5.10;;
51042;SDS011;37078;45.806;9.084;2022-09-06T14:11:28;16.17;;;5.13;;
51042;SDS011;37078;45.806;9.084;2022-09-06T14:13:53;12.20;;;4.95;;
51042;SDS011;37078;45.806;9.084;2022-09-06T14:16:19;14.70;;;4.70;;
51042;SDS011;37078;45.806;9.084;2022-09-06T14:18:44;12.75;;;4.60;;
51042;SDS011;37078;45.806;9.084;2022-09-06T14:21:10;11.23;;;4.70;;
51042;SDS011;37078;45.806;9.084;2022-09-06T14:23:35;13.60;;;4.80;;
51042;SDS011;37078;45.806;9.084;2022-09-06T14:26:01;10.85;;;4.57;;
51042;SDS011;37078;45.806;9.084;2022-09-06T14:28:29;13.02;;;4.70;;
51042;SDS011;37078;45.806;9.084;2022-09-06T14:30:56;13.05;;;5.13;;
51042;SDS011;37078;45.806;9.084;2022-09-06T14:33:21;17.48;;;5.47;;
51042;SDS011;37078;45.806;9.084;2022-09-06T14:35:47;14.90;;;4.60;;
51042;SDS011;37078;45.806;9.084;2022-09-06T14:38:12;14.20;;;4.63;;
51042;SDS011;37078;45.806;9.084;2022-09-06T14:40:39;18.67;;;5.20;;
51042;SDS011;37078;45.806;9.084;2022-09-06T14:43:09;13.68;;;4.97;;
51042;SDS011;37078;45.806;9.084;2022-09-06T14:45:35;13.90;;;5.13;;
51042;SDS011;37078;45.806;9.084;2022-09-06T14:48:01;14.15;;;5.30;;
51042;SDS011;37078;45.806;9.084;2022-09-06T14:50:27;15.20;;;5.15;;
51042;SDS011;37078;45.806;9.084;2022-09-06T14:52:53;14.57;;;5.20;;
51042;SDS011;37078;45.806;9.084;2022-09-06T14:55:18;12.90;;;5.00;;
51042;SDS011;37078;45.806;9.084;2022-09-06T14:57:44;14.18;;;5.20;;
51042;SDS011;37078;45.806;9.084;2022-09-06T15:00:10;15.43;;;4.82;;
51042;SDS011;37078;45.806;9.084;2022-09-06T15:02:36;15.48;;;5.38;;
51042;SDS011;37078;45.806;9.084;2022-09-06T15:05:02;12.25;;;4.95;;
51042;SDS011;37078;45.806;9.084;2022-09-06T15:07:28;12.43;;;4.65;;
51042;SDS011;37078;45.806;9.084;2022-09-06T15:09:53;12.68;;;4.55;;
51042;SDS011;37078;45.806;9.084;2022-09-06T15:12:18;11.73;;;5.07;;
51042;SDS011;37078;45.806;9.084;2022-09-06T15:14:45;13.38;;;5.10;;
51042;SDS011;37078;45.806;9.084;2022-09-06T15:17:10;11.32;;;4.70;;
51042;SDS011;37078;45.806;9.084;2022-09-06T15:19:36;11.68;;;5.15;;
51042;SDS011;37078;45.806;9.084;2022-09-06T15:22:02;11.82;;;4.88;;
51042;SDS011;37078;45.806;9.084;2022-09-06T15:24:29;11.00;;;4.82;;
51042;SDS011;37078;45.806;9.084;2022-09-06T15:26:55;12.68;;;4.78;;
51042;SDS011;37078;45.806;9.084;2022-09-06T15:29:21;12.40;;;5.28;;
51042;SDS011;37078;45.806;9.084;2022-09-06T15:31:46;11.48;;;4.82;;
51042;SDS011;37078;45.806;9.084;2022-09-06T15:34:15;12.15;;;4.85;;
51042;SDS011;37078;45.806;9.084;2022-09-06T15:36:41;13.25;;;5.00;;
51042;SDS011;37078;45.806;9.084;2022-09-06T15:39:07;11.93;;;4.80;;
51042;SDS011;37078;45.806;9.084;2022-09-06T15:41:33;12.15;;;5.18;;
51042;SDS011;37078;45.806;9.084;2022-09-06T15:44:01;12.02;;;4.85;;
51042;SDS011;37078;45.806;9.084;2022-09-06T15:48:59;11.57;;;4.70;;
51042;SDS011;37078;45.806;9.084;2022-09-06T15:51:26;11.75;;;4.70;;
51042;SDS011;37078;45.806;9.084;2022-09-06T15:53:52;10.57;;;4.40;;
51042;SDS011;37078;45.806;9.084;2022-09-06T15:56:18;11.40;;;4.90;;
51042;SDS011;37078;45.806;9.084;2022-09-06T15:58:43;12.43;;;4.53;;
51042;SDS011;37078;45.806;9.084;2022-09-06T16:03:40;12.93;;;5.20;;
51042;SDS011;37078;45.806;9.084;2022-09-06T16:06:09;11.05;;;4.53;;
51042;SDS011;37078;45.806;9.084;2022-09-06T16:08:36;11.80;;;4.53;;
51042;SDS011;37078;45.806;9.084;2022-09-06T16:11:09;10.50;;;4.35;;
51042;SDS011;37078;45.806;9.084;2022-09-06T16:13:36;11.23;;;4.35;;
51042;SDS011;37078;45.806;9.084;2022-09-06T16:16:04;12.00;;;5.00;;
51042;SDS011;37078;45.806;9.084;2022-09-06T16:18:31;11.63;;;4.80;;
51042;SDS011;37078;45.806;9.084;2022-09-06T16:23:37;10.75;;;4.80;;
51042;SDS011;37078;45.806;9.084;2022-09-06T16:26:04;10.55;;;4.50;;
51042;SDS011;37078;45.806;9.084;2022-09-06T16:28:32;10.98;;;4.43;;
51042;SDS011;37078;45.806;9.084;2022-09-06T16:30:59;10.23;;;4.30;;
51042;SDS011;37078;45.806;9.084;2022-09-06T16:33:26;10.82;;;4.60;;
51042;SDS011;37078;45.806;9.084;2022-09-06T16:35:51;10.57;;;4.32;;
51042;SDS011;37078;45.806;9.084;2022-09-06T16:38:17;12.02;;;4.68;;
51042;SDS011;37078;45.806;9.084;2022-09-06T16:40:45;15.38;;;4.75;;
51042;SDS011;37078;45.806;9.084;2022-09-06T16:43:11;11.35;;;4.55;;
51042;SDS011;37078;45.806;9.084;2022-09-06T16:45:37;13.77;;;4.90;;